Terminal Aerodrome Forecast
Issued by NWS Topeka, KS

Home | Current Version | Previous Version | Text Only | Print | Product List | Glossary On
Versions: 1 2 3 4 5 6 7 8 9 10 11 12 13 14
000
FTUS43 KTOP 261100
TAFTOP
TAF
KTOP 261120Z 2612/2712 21011KT P6SM BKN150
      TEMPO 2615/2617 -SHRA SCT070 BKN150
     FM270500 36007KT P6SM BKN150=

USA.gov is the U.S. government's official web portal to all federal, state and local government web resources and services.